sensor_id;sensor_type;location;lat;lon;timestamp;pressure;altitude;pressure_sealevel;temperature;humidity
12536;BME280;6334;48.696;2.114;2022-08-19T00:00:17;99854.90;;;20.72;79.11
12536;BME280;6334;48.696;2.114;2022-08-19T00:02:47;99855.75;;;20.86;78.50
12536;BME280;6334;48.696;2.114;2022-08-19T00:05:17;99845.53;;;20.42;79.78
12536;BME280;6334;48.696;2.114;2022-08-19T00:07:48;99852.72;;;20.58;79.71
12536;BME280;6334;48.696;2.114;2022-08-19T00:10:19;99803.64;;;20.14;79.61
12536;BME280;6334;48.696;2.114;2022-08-19T00:12:49;99849.86;;;20.02;80.98
12536;BME280;6334;48.696;2.114;2022-08-19T00:15:21;99858.00;;;20.10;80.96
12536;BME280;6334;48.696;2.114;2022-08-19T00:17:50;99860.31;;;20.12;80.86
12536;BME280;6334;48.696;2.114;2022-08-19T00:20:20;99855.95;;;20.06;80.78
12536;BME280;6334;48.696;2.114;2022-08-19T00:22:51;99811.14;;;19.84;80.56
12536;BME280;6334;48.696;2.114;2022-08-19T00:25:21;99863.27;;;20.40;80.22
12536;BME280;6334;48.696;2.114;2022-08-19T00:27:52;99866.06;;;20.29;79.47
12536;BME280;6334;48.696;2.114;2022-08-19T00:30:22;99766.14;;;19.82;79.71
12536;BME280;6334;48.696;2.114;2022-08-19T00:32:53;99862.27;;;20.34;78.98
12536;BME280;6334;48.696;2.114;2022-08-19T00:35:23;99840.95;;;19.84;80.77
12536;BME280;6334;48.696;2.114;2022-08-19T00:37:54;99847.20;;;19.94;80.65
12536;BME280;6334;48.696;2.114;2022-08-19T00:40:24;99860.30;;;20.06;81.53
12536;BME280;6334;48.696;2.114;2022-08-19T00:42:54;99862.41;;;19.93;81.46
12536;BME280;6334;48.696;2.114;2022-08-19T00:45:26;99862.92;;;19.85;81.82
12536;BME280;6334;48.696;2.114;2022-08-19T00:47:55;99867.51;;;19.70;82.54
12536;BME280;6334;48.696;2.114;2022-08-19T00:50:26;99866.88;;;19.67;82.18
12536;BME280;6334;48.696;2.114;2022-08-19T00:52:56;99866.93;;;19.93;81.51
12536;BME280;6334;48.696;2.114;2022-08-19T00:55:27;99871.66;;;19.69;82.49
12536;BME280;6334;48.696;2.114;2022-08-19T00:58:02;99860.99;;;19.44;83.18
12536;BME280;6334;48.696;2.114;2022-08-19T01:00:30;99864.27;;;19.88;81.86
12536;BME280;6334;48.696;2.114;2022-08-19T01:03:01;99863.53;;;20.14;81.02
12536;BME280;6334;48.696;2.114;2022-08-19T01:05:31;99862.78;;;19.74;82.27
12536;BME280;6334;48.696;2.114;2022-08-19T01:08:02;99861.48;;;19.88;81.28
12536;BME280;6334;48.696;2.114;2022-08-19T01:10:35;99860.88;;;19.87;81.54
12536;BME280;6334;48.696;2.114;2022-08-19T01:13:03;99864.51;;;20.17;79.98
12536;BME280;6334;48.696;2.114;2022-08-19T01:15:35;99862.44;;;20.00;81.12
12536;BME280;6334;48.696;2.114;2022-08-19T01:18:07;99857.00;;;19.92;81.39
12536;BME280;6334;48.696;2.114;2022-08-19T01:20:37;99857.51;;;19.67;82.17
12536;BME280;6334;48.696;2.114;2022-08-19T01:23:07;99859.52;;;19.45;83.45
12536;BME280;6334;48.696;2.114;2022-08-19T01:25:50;99863.56;;;19.49;83.84
12536;BME280;6334;48.696;2.114;2022-08-19T01:30:47;99877.22;;;19.40;84.06
12536;BME280;6334;48.696;2.114;2022-08-19T01:33:17;99878.19;;;19.33;84.24
12536;BME280;6334;48.696;2.114;2022-08-19T01:35:48;99874.59;;;19.23;84.68
12536;BME280;6334;48.696;2.114;2022-08-19T01:38:25;99774.03;;;18.55;85.21
12536;BME280;6334;48.696;2.114;2022-08-19T01:40:54;99874.43;;;19.18;85.47
12536;BME280;6334;48.696;2.114;2022-08-19T01:43:25;99876.72;;;19.22;84.93
12536;BME280;6334;48.696;2.114;2022-08-19T01:45:55;99873.52;;;19.23;85.28
12536;BME280;6334;48.696;2.114;2022-08-19T01:48:26;99871.05;;;19.29;84.72
12536;BME280;6334;48.696;2.114;2022-08-19T01:50:56;99801.12;;;18.96;84.74
12536;BME280;6334;48.696;2.114;2022-08-19T01:53:26;99879.97;;;19.40;84.18
12536;BME280;6334;48.696;2.114;2022-08-19T01:55:57;99874.81;;;19.42;85.17
12536;BME280;6334;48.696;2.114;2022-08-19T01:58:29;99871.61;;;19.15;85.45
12536;BME280;6334;48.696;2.114;2022-08-19T02:00:58;99876.08;;;19.32;84.59
12536;BME280;6334;48.696;2.114;2022-08-19T02:03:28;99871.37;;;19.19;85.11
12536;BME280;6334;48.696;2.114;2022-08-19T02:06:00;99872.31;;;19.54;84.46
12536;BME280;6334;48.696;2.114;2022-08-19T02:08:29;99876.39;;;19.26;84.95
12536;BME280;6334;48.696;2.114;2022-08-19T02:11:00;99874.58;;;19.10;85.25
12536;BME280;6334;48.696;2.114;2022-08-19T02:13:30;99871.44;;;19.32;84.71
12536;BME280;6334;48.696;2.114;2022-08-19T02:16:00;99866.86;;;19.19;84.91
12536;BME280;6334;48.696;2.114;2022-08-19T02:18:31;99873.00;;;19.51;83.10
12536;BME280;6334;48.696;2.114;2022-08-19T02:21:01;99874.39;;;19.76;82.76
12536;BME280;6334;48.696;2.114;2022-08-19T02:23:32;99879.01;;;19.98;81.64
12536;BME280;6334;48.696;2.114;2022-08-19T02:26:02;99876.23;;;19.99;81.45
12536;BME280;6334;48.696;2.114;2022-08-19T02:28:33;99877.65;;;20.05;81.07
12536;BME280;6334;48.696;2.114;2022-08-19T02:31:07;99878.89;;;20.07;81.54
12536;BME280;6334;48.696;2.114;2022-08-19T02:33:34;99866.95;;;19.50;84.09
12536;BME280;6334;48.696;2.114;2022-08-19T02:36:05;99880.41;;;20.04;81.92
12536;BME280;6334;48.696;2.114;2022-08-19T02:38:35;99884.16;;;19.72;81.96
12536;BME280;6334;48.696;2.114;2022-08-19T02:41:11;99881.11;;;19.82;83.08
12536;BME280;6334;48.696;2.114;2022-08-19T02:43:38;99882.02;;;19.56;83.28
12536;BME280;6334;48.696;2.114;2022-08-19T02:46:25;99880.05;;;19.65;82.99
12536;BME280;6334;48.696;2.114;2022-08-19T02:48:51;99879.72;;;19.43;84.32
12536;BME280;6334;48.696;2.114;2022-08-19T02:51:21;99878.97;;;19.54;83.36
12536;BME280;6334;48.696;2.114;2022-08-19T02:53:51;99881.52;;;19.59;83.52
12536;BME280;6334;48.696;2.114;2022-08-19T02:56:21;99881.06;;;18.90;86.00
12536;BME280;6334;48.696;2.114;2022-08-19T02:58:51;99881.56;;;19.39;84.72
12536;BME280;6334;48.696;2.114;2022-08-19T03:01:28;99880.52;;;19.33;85.18
12536;BME280;6334;48.696;2.114;2022-08-19T03:03:57;99882.41;;;19.62;83.96
12536;BME280;6334;48.696;2.114;2022-08-19T03:06:26;99883.02;;;19.36;84.85
12536;BME280;6334;48.696;2.114;2022-08-19T03:08:56;99886.63;;;19.41;84.78
12536;BME280;6334;48.696;2.114;2022-08-19T03:11:27;99884.73;;;19.51;84.32
12536;BME280;6334;48.696;2.114;2022-08-19T03:13:57;99892.77;;;19.85;82.79
12536;BME280;6334;48.696;2.114;2022-08-19T03:16:31;99884.13;;;19.57;84.58
12536;BME280;6334;48.696;2.114;2022-08-19T03:18:58;99829.10;;;19.46;82.62
12536;BME280;6334;48.696;2.114;2022-08-19T03:21:32;99886.92;;;19.60;84.40
12536;BME280;6334;48.696;2.114;2022-08-19T03:24:03;99887.23;;;19.29;84.97
12536;BME280;6334;48.696;2.114;2022-08-19T03:26:32;99883.39;;;19.53;84.57
12536;BME280;6334;48.696;2.114;2022-08-19T03:29:03;99885.91;;;19.75;84.53
12536;BME280;6334;48.696;2.114;2022-08-19T03:31:33;99883.39;;;19.67;83.81
12536;BME280;6334;48.696;2.114;2022-08-19T03:34:03;99880.82;;;19.72;84.12
12536;BME280;6334;48.696;2.114;2022-08-19T03:36:34;99877.55;;;19.42;85.12
12536;BME280;6334;48.696;2.114;2022-08-19T03:39:04;99852.14;;;19.58;84.87
12536;BME280;6334;48.696;2.114;2022-08-19T03:41:38;99872.17;;;19.56;83.97
12536;BME280;6334;48.696;2.114;2022-08-19T03:44:08;99877.16;;;19.36;86.41
12536;BME280;6334;48.696;2.114;2022-08-19T03:46:38;99878.30;;;19.62;85.12
12536;BME280;6334;48.696;2.114;2022-08-19T03:49:09;99878.52;;;19.86;84.07
12536;BME280;6334;48.696;2.114;2022-08-19T03:51:39;99882.22;;;19.75;83.79
12536;BME280;6334;48.696;2.114;2022-08-19T03:54:12;99881.20;;;19.53;85.91
12536;BME280;6334;48.696;2.114;2022-08-19T03:56:41;99877.24;;;19.60;85.53
12536;BME280;6334;48.696;2.114;2022-08-19T03:59:12;99879.42;;;19.73;85.27
12536;BME280;6334;48.696;2.114;2022-08-19T04:01:41;99875.44;;;19.91;84.14
12536;BME280;6334;48.696;2.114;2022-08-19T04:04:12;99871.25;;;19.46;85.39
12536;BME280;6334;48.696;2.114;2022-08-19T04:06:42;99872.32;;;19.85;84.05
12536;BME280;6334;48.696;2.114;2022-08-19T04:09:13;99875.55;;;19.83;84.31
12536;BME280;6334;48.696;2.114;2022-08-19T04:11:44;99874.41;;;19.47;86.20
12536;BME280;6334;48.696;2.114;2022-08-19T04:14:15;99874.56;;;19.89;84.56
12536;BME280;6334;48.696;2.114;2022-08-19T04:16:45;99871.37;;;19.90;83.98
12536;BME280;6334;48.696;2.114;2022-08-19T04:19:14;99870.66;;;20.06;83.42
12536;BME280;6334;48.696;2.114;2022-08-19T04:21:46;99875.48;;;19.89;85.18
12536;BME280;6334;48.696;2.114;2022-08-19T04:24:15;99872.45;;;20.02;84.09
12536;BME280;6334;48.696;2.114;2022-08-19T04:26:46;99876.53;;;19.81;85.27
12536;BME280;6334;48.696;2.114;2022-08-19T04:29:17;99875.32;;;19.74;85.21
12536;BME280;6334;48.696;2.114;2022-08-19T04:31:47;99840.34;;;19.29;85.60
12536;BME280;6334;48.696;2.114;2022-08-19T04:34:18;99885.95;;;19.22;87.24
12536;BME280;6334;48.696;2.114;2022-08-19T04:36:47;99886.58;;;19.29;87.19
12536;BME280;6334;48.696;2.114;2022-08-19T04:39:19;99885.39;;;19.14;87.82
12536;BME280;6334;48.696;2.114;2022-08-19T04:41:48;99888.33;;;19.41;87.21
12536;BME280;6334;48.696;2.114;2022-08-19T04:44:37;99893.35;;;19.09;88.29
12536;BME280;6334;48.696;2.114;2022-08-19T04:47:07;99901.30;;;19.17;87.94
12536;BME280;6334;48.696;2.114;2022-08-19T04:49:38;99905.12;;;19.06;88.57
12536;BME280;6334;48.696;2.114;2022-08-19T04:52:08;99903.84;;;19.52;86.84
12536;BME280;6334;48.696;2.114;2022-08-19T04:54:39;99903.36;;;19.64;86.23
12536;BME280;6334;48.696;2.114;2022-08-19T04:57:09;99905.00;;;19.16;88.30
12536;BME280;6334;48.696;2.114;2022-08-19T04:59:40;99906.69;;;19.10;88.58
12536;BME280;6334;48.696;2.114;2022-08-19T05:02:10;99909.16;;;19.30;88.41
12536;BME280;6334;48.696;2.114;2022-08-19T05:04:41;99905.27;;;19.29;87.93
12536;BME280;6334;48.696;2.114;2022-08-19T05:07:11;99911.34;;;19.10;88.53
12536;BME280;6334;48.696;2.114;2022-08-19T05:09:42;99907.42;;;19.10;89.24
12536;BME280;6334;48.696;2.114;2022-08-19T05:12:12;99906.62;;;19.20;88.57
12536;BME280;6334;48.696;2.114;2022-08-19T05:14:43;99907.72;;;18.95;90.06
12536;BME280;6334;48.696;2.114;2022-08-19T05:17:13;99905.87;;;19.04;89.82
12536;BME280;6334;48.696;2.114;2022-08-19T05:19:43;99906.83;;;19.30;88.99
12536;BME280;6334;48.696;2.114;2022-08-19T05:22:32;99910.26;;;19.43;88.33
12536;BME280;6334;48.696;2.114;2022-08-19T05:25:07;99912.57;;;19.56;87.58
12536;BME280;6334;48.696;2.114;2022-08-19T05:27:35;99920.89;;;19.04;90.27
12536;BME280;6334;48.696;2.114;2022-08-19T05:30:06;99924.45;;;19.55;88.43
12536;BME280;6334;48.696;2.114;2022-08-19T05:32:37;99921.47;;;19.23;89.66
12536;BME280;6334;48.696;2.114;2022-08-19T05:35:07;99926.84;;;19.63;88.11
12536;BME280;6334;48.696;2.114;2022-08-19T05:37:37;99921.20;;;19.37;88.56
12536;BME280;6334;48.696;2.114;2022-08-19T05:40:08;99921.72;;;19.34;89.96
12536;BME280;6334;48.696;2.114;2022-08-19T05:42:38;99920.98;;;19.20;90.28
12536;BME280;6334;48.696;2.114;2022-08-19T05:45:09;99910.92;;;19.42;89.48
12536;BME280;6334;48.696;2.114;2022-08-19T05:47:39;99917.78;;;19.84;87.01
12536;BME280;6334;48.696;2.114;2022-08-19T05:50:10;99918.06;;;19.49;89.05
12536;BME280;6334;48.696;2.114;2022-08-19T05:52:40;99924.42;;;19.69;88.71
12536;BME280;6334;48.696;2.114;2022-08-19T05:55:11;99925.91;;;19.87;88.00
12536;BME280;6334;48.696;2.114;2022-08-19T05:57:41;99932.81;;;20.01;87.72
12536;BME280;6334;48.696;2.114;2022-08-19T06:00:12;99933.44;;;19.59;88.89
12536;BME280;6334;48.696;2.114;2022-08-19T06:02:42;99920.63;;;19.73;88.42
12536;BME280;6334;48.696;2.114;2022-08-19T06:05:13;99935.74;;;19.19;90.30
12536;BME280;6334;48.696;2.114;2022-08-19T06:07:43;99938.33;;;19.91;87.67
12536;BME280;6334;48.696;2.114;2022-08-19T06:10:13;99942.20;;;20.00;88.00
12536;BME280;6334;48.696;2.114;2022-08-19T06:12:44;99886.09;;;19.02;89.80
12536;BME280;6334;48.696;2.114;2022-08-19T06:15:14;99935.98;;;19.50;89.56
12536;BME280;6334;48.696;2.114;2022-08-19T06:17:45;99941.63;;;19.73;89.91
12536;BME280;6334;48.696;2.114;2022-08-19T06:20:15;99941.23;;;19.94;88.46
12536;BME280;6334;48.696;2.114;2022-08-19T06:22:47;99943.39;;;19.96;88.47
12536;BME280;6334;48.696;2.114;2022-08-19T06:25:17;99948.41;;;19.98;88.49
12536;BME280;6334;48.696;2.114;2022-08-19T06:27:47;99953.41;;;20.04;89.30
12536;BME280;6334;48.696;2.114;2022-08-19T06:30:17;99953.45;;;19.88;88.91
12536;BME280;6334;48.696;2.114;2022-08-19T06:32:48;99953.75;;;20.04;88.72
12536;BME280;6334;48.696;2.114;2022-08-19T06:35:18;99956.09;;;20.08;89.44
12536;BME280;6334;48.696;2.114;2022-08-19T06:37:48;99948.30;;;19.85;89.98
12536;BME280;6334;48.696;2.114;2022-08-19T06:40:19;99941.36;;;19.78;91.16
12536;BME280;6334;48.696;2.114;2022-08-19T06:42:49;99951.95;;;19.82;90.56
12536;BME280;6334;48.696;2.114;2022-08-19T06:45:20;99952.36;;;19.91;90.39
12536;BME280;6334;48.696;2.114;2022-08-19T06:47:51;99954.47;;;20.10;90.12
12536;BME280;6334;48.696;2.114;2022-08-19T06:50:21;99958.96;;;19.44;92.14
12536;BME280;6334;48.696;2.114;2022-08-19T06:52:51;99956.42;;;19.94;90.30
12536;BME280;6334;48.696;2.114;2022-08-19T06:55:22;99954.15;;;19.53;92.28
12536;BME280;6334;48.696;2.114;2022-08-19T06:57:52;99953.36;;;20.11;89.61
12536;BME280;6334;48.696;2.114;2022-08-19T07:00:23;99951.41;;;20.33;89.09
12536;BME280;6334;48.696;2.114;2022-08-19T07:02:53;99955.55;;;19.57;91.76
12536;BME280;6334;48.696;2.114;2022-08-19T07:05:24;99963.08;;;19.90;90.61
12536;BME280;6334;48.696;2.114;2022-08-19T07:07:54;99970.66;;;20.03;91.86
12536;BME280;6334;48.696;2.114;2022-08-19T07:10:24;99917.84;;;19.96;89.71
12536;BME280;6334;48.696;2.114;2022-08-19T07:12:55;99980.64;;;20.19;89.80
12536;BME280;6334;48.696;2.114;2022-08-19T07:15:25;99970.50;;;20.41;89.17
12536;BME280;6334;48.696;2.114;2022-08-19T07:17:56;99971.23;;;20.11;89.78
12536;BME280;6334;48.696;2.114;2022-08-19T07:20:26;99973.97;;;19.96;90.50
12536;BME280;6334;48.696;2.114;2022-08-19T07:22:57;99968.58;;;20.41;89.00
12536;BME280;6334;48.696;2.114;2022-08-19T07:25:27;99971.77;;;20.64;88.04
12536;BME280;6334;48.696;2.114;2022-08-19T07:27:58;99970.42;;;20.37;90.09
12536;BME280;6334;48.696;2.114;2022-08-19T07:30:28;99971.42;;;20.68;88.48
12536;BME280;6334;48.696;2.114;2022-08-19T07:32:58;99969.30;;;20.61;88.89
12536;BME280;6334;48.696;2.114;2022-08-19T07:35:29;99968.69;;;20.45;88.64
12536;BME280;6334;48.696;2.114;2022-08-19T07:37:59;99973.39;;;20.18;90.69
12536;BME280;6334;48.696;2.114;2022-08-19T07:40:30;99978.98;;;20.24;89.56
12536;BME280;6334;48.696;2.114;2022-08-19T07:43:00;99974.50;;;20.42;88.93
12536;BME280;6334;48.696;2.114;2022-08-19T07:45:31;99977.53;;;20.48;90.02
12536;BME280;6334;48.696;2.114;2022-08-19T07:48:01;99978.13;;;20.66;89.25
12536;BME280;6334;48.696;2.114;2022-08-19T07:50:32;99981.11;;;20.22;90.16
12536;BME280;6334;48.696;2.114;2022-08-19T07:53:02;99980.56;;;20.16;90.16
12536;BME280;6334;48.696;2.114;2022-08-19T07:55:33;99977.67;;;20.13;90.31
12536;BME280;6334;48.696;2.114;2022-08-19T07:58:03;99893.76;;;19.98;89.68
12536;BME280;6334;48.696;2.114;2022-08-19T08:00:34;99968.17;;;20.48;88.89
12536;BME280;6334;48.696;2.114;2022-08-19T08:03:04;99966.80;;;20.54;88.70
12536;BME280;6334;48.696;2.114;2022-08-19T08:05:34;99972.73;;;20.33;90.05
12536;BME280;6334;48.696;2.114;2022-08-19T08:08:23;99962.23;;;20.48;88.92
12536;BME280;6334;48.696;2.114;2022-08-19T08:11:03;99964.98;;;20.70;89.04
12536;BME280;6334;48.696;2.114;2022-08-19T08:13:33;99969.72;;;20.52;89.18
12536;BME280;6334;48.696;2.114;2022-08-19T08:16:03;99977.13;;;20.67;88.91
12536;BME280;6334;48.696;2.114;2022-08-19T08:18:34;99973.10;;;20.50;89.07
12536;BME280;6334;48.696;2.114;2022-08-19T08:21:04;99980.69;;;20.49;90.26
12536;BME280;6334;48.696;2.114;2022-08-19T08:23:35;99975.86;;;20.57;89.83
12536;BME280;6334;48.696;2.114;2022-08-19T08:26:05;99943.66;;;20.40;89.98
12536;BME280;6334;48.696;2.114;2022-08-19T08:28:36;99983.20;;;20.42;90.05
12536;BME280;6334;48.696;2.114;2022-08-19T08:31:06;99987.50;;;20.45;89.73
12536;BME280;6334;48.696;2.114;2022-08-19T08:33:37;99991.60;;;20.55;89.84
12536;BME280;6334;48.696;2.114;2022-08-19T08:36:10;99995.04;;;20.45;89.82
12536;BME280;6334;48.696;2.114;2022-08-19T08:38:43;99996.54;;;20.62;89.31
12536;BME280;6334;48.696;2.114;2022-08-19T08:43:57;99991.60;;;20.62;89.00
12536;BME280;6334;48.696;2.114;2022-08-19T08:46:38;99999.67;;;20.96;88.30
12536;BME280;6334;48.696;2.114;2022-08-19T08:51:57;99985.22;;;21.36;87.99
12536;BME280;6334;48.696;2.114;2022-08-19T08:54:23;99988.47;;;21.19;87.67
12536;BME280;6334;48.696;2.114;2022-08-19T08:56:53;99990.87;;;21.40;86.64
12536;BME280;6334;48.696;2.114;2022-08-19T08:59:26;99990.20;;;21.96;84.11
12536;BME280;6334;48.696;2.114;2022-08-19T09:01:53;99993.06;;;21.29;86.71
12536;BME280;6334;48.696;2.114;2022-08-19T09:04:24;99996.80;;;21.46;86.34
12536;BME280;6334;48.696;2.114;2022-08-19T09:09:43;99996.51;;;21.68;84.78
12536;BME280;6334;48.696;2.114;2022-08-19T09:12:16;99992.72;;;21.46;85.33
12536;BME280;6334;48.696;2.114;2022-08-19T09:17:20;99986.44;;;22.06;84.10
12536;BME280;6334;48.696;2.114;2022-08-19T09:22:20;99981.91;;;21.60;85.08
12536;BME280;6334;48.696;2.114;2022-08-19T09:24:51;99977.59;;;22.12;81.71
12536;BME280;6334;48.696;2.114;2022-08-19T09:27:22;99977.89;;;22.63;81.22
12536;BME280;6334;48.696;2.114;2022-08-19T09:29:51;99978.42;;;22.54;82.61
12536;BME280;6334;48.696;2.114;2022-08-19T09:32:22;99973.74;;;22.68;81.16
12536;BME280;6334;48.696;2.114;2022-08-19T09:34:52;99975.14;;;22.50;83.44
12536;BME280;6334;48.696;2.114;2022-08-19T09:37:23;99981.38;;;22.64;81.64
12536;BME280;6334;48.696;2.114;2022-08-19T09:39:53;99990.02;;;22.64;81.53
12536;BME280;6334;48.696;2.114;2022-08-19T09:42:24;99969.75;;;22.79;80.47
12536;BME280;6334;48.696;2.114;2022-08-19T09:44:54;99988.30;;;22.73;78.78
12536;BME280;6334;48.696;2.114;2022-08-19T09:47:24;99991.06;;;22.89;79.08
12536;BME280;6334;48.696;2.114;2022-08-19T09:49:55;99945.45;;;22.61;79.03
12536;BME280;6334;48.696;2.114;2022-08-19T09:52:25;99987.08;;;22.72;80.10
12536;BME280;6334;48.696;2.114;2022-08-19T09:54:56;99973.59;;;22.35;80.52
12536;BME280;6334;48.696;2.114;2022-08-19T09:57:26;99985.52;;;22.58;80.41
12536;BME280;6334;48.696;2.114;2022-08-19T09:59:57;99985.70;;;22.42;81.83
12536;BME280;6334;48.696;2.114;2022-08-19T10:02:27;99982.81;;;22.50;81.05
12536;BME280;6334;48.696;2.114;2022-08-19T10:04:58;99956.41;;;22.63;80.35
12536;BME280;6334;48.696;2.114;2022-08-19T10:07:46;99985.77;;;22.84;80.62
12536;BME280;6334;48.696;2.114;2022-08-19T10:10:16;99983.17;;;22.84;80.68
12536;BME280;6334;48.696;2.114;2022-08-19T10:12:47;99986.65;;;22.44;81.30
12536;BME280;6334;48.696;2.114;2022-08-19T10:15:17;99979.05;;;22.22;82.31
12536;BME280;6334;48.696;2.114;2022-08-19T10:17:48;99980.98;;;23.12;79.51
12536;BME280;6334;48.696;2.114;2022-08-19T10:20:18;99981.43;;;22.82;80.56
12536;BME280;6334;48.696;2.114;2022-08-19T10:22:49;99979.25;;;22.61;81.53
12536;BME280;6334;48.696;2.114;2022-08-19T10:25:19;99974.52;;;23.21;80.07
12536;BME280;6334;48.696;2.114;2022-08-19T10:27:50;99965.23;;;23.14;79.73
12536;BME280;6334;48.696;2.114;2022-08-19T10:30:20;99973.83;;;23.20;79.88
12536;BME280;6334;48.696;2.114;2022-08-19T10:32:51;99970.39;;;23.25;80.96
12536;BME280;6334;48.696;2.114;2022-08-19T10:35:21;99953.94;;;22.99;80.14
12536;BME280;6334;48.696;2.114;2022-08-19T10:37:51;99978.66;;;22.61;81.10
12536;BME280;6334;48.696;2.114;2022-08-19T10:40:22;99978.81;;;22.89;81.14
12536;BME280;6334;48.696;2.114;2022-08-19T10:42:53;99977.05;;;23.06;80.57
12536;BME280;6334;48.696;2.114;2022-08-19T10:45:23;99973.91;;;22.81;81.00
12536;BME280;6334;48.696;2.114;2022-08-19T10:47:53;99967.78;;;23.07;80.56
12536;BME280;6334;48.696;2.114;2022-08-19T10:50:24;99966.44;;;23.07;80.03
12536;BME280;6334;48.696;2.114;2022-08-19T10:53:12;99967.65;;;23.58;78.34
12536;BME280;6334;48.696;2.114;2022-08-19T10:55:44;99964.52;;;23.60;79.65
12536;BME280;6334;48.696;2.114;2022-08-19T10:58:32;99961.09;;;23.23;80.48
12536;BME280;6334;48.696;2.114;2022-08-19T11:01:02;99961.72;;;23.00;80.45
12536;BME280;6334;48.696;2.114;2022-08-19T11:03:33;99963.66;;;22.92;79.94
12536;BME280;6334;48.696;2.114;2022-08-19T11:06:05;99961.64;;;23.07;79.60
12536;BME280;6334;48.696;2.114;2022-08-19T11:08:34;99955.64;;;23.06;79.74
12536;BME280;6334;48.696;2.114;2022-08-19T11:11:05;99971.36;;;23.19;79.54
12536;BME280;6334;48.696;2.114;2022-08-19T11:13:35;99968.30;;;23.15;78.60
12536;BME280;6334;48.696;2.114;2022-08-19T11:16:15;99968.09;;;23.42;77.43
12536;BME280;6334;48.696;2.114;2022-08-19T11:18:45;99933.25;;;23.26;77.03
12536;BME280;6334;48.696;2.114;2022-08-19T11:21:22;99960.97;;;23.79;76.44
12536;BME280;6334;48.696;2.114;2022-08-19T11:23:53;99958.44;;;23.55;76.24
12536;BME280;6334;48.696;2.114;2022-08-19T11:26:22;99957.28;;;23.64;76.04
12536;BME280;6334;48.696;2.114;2022-08-19T11:28:52;99953.08;;;23.57;75.77
12536;BME280;6334;48.696;2.114;2022-08-19T11:31:25;99955.80;;;23.58;74.69
12536;BME280;6334;48.696;2.114;2022-08-19T11:33:53;99957.14;;;24.04;73.88
12536;BME280;6334;48.696;2.114;2022-08-19T11:36:23;99952.90;;;24.39;75.12
12536;BME280;6334;48.696;2.114;2022-08-19T11:38:54;99957.03;;;24.31;75.47
12536;BME280;6334;48.696;2.114;2022-08-19T11:41:24;99908.94;;;23.65;73.77
12536;BME280;6334;48.696;2.114;2022-08-19T11:46:18;99950.08;;;24.04;73.20
12536;BME280;6334;48.696;2.114;2022-08-19T11:48:48;99939.61;;;24.26;72.82
12536;BME280;6334;48.696;2.114;2022-08-19T11:51:20;99948.84;;;24.72;72.20
12536;BME280;6334;48.696;2.114;2022-08-19T11:53:49;99948.16;;;24.30;72.93
12536;BME280;6334;48.696;2.114;2022-08-19T11:56:20;99944.56;;;25.15;72.55
12536;BME280;6334;48.696;2.114;2022-08-19T11:58:50;99946.03;;;25.26;68.58
12536;BME280;6334;48.696;2.114;2022-08-19T12:01:21;99934.42;;;25.05;71.55
12536;BME280;6334;48.696;2.114;2022-08-19T12:03:51;99940.61;;;25.16;71.29
12536;BME280;6334;48.696;2.114;2022-08-19T12:06:22;99941.21;;;25.60;68.50
12536;BME280;6334;48.696;2.114;2022-08-19T12:08:51;99938.84;;;25.44;70.08
12536;BME280;6334;48.696;2.114;2022-08-19T12:11:22;99935.80;;;24.83;69.40
12536;BME280;6334;48.696;2.114;2022-08-19T12:13:52;99938.16;;;24.86;71.29
12536;BME280;6334;48.696;2.114;2022-08-19T12:16:24;99905.42;;;25.02;69.63
12536;BME280;6334;48.696;2.114;2022-08-19T12:18:54;99937.45;;;24.86;70.13
12536;BME280;6334;48.696;2.114;2022-08-19T12:21:25;99933.66;;;25.46;69.02
12536;BME280;6334;48.696;2.114;2022-08-19T12:23:55;99934.89;;;25.61;68.16
12536;BME280;6334;48.696;2.114;2022-08-19T12:26:25;99935.67;;;25.53;67.73
12536;BME280;6334;48.696;2.114;2022-08-19T12:28:55;99925.73;;;25.91;66.63
12536;BME280;6334;48.696;2.114;2022-08-19T12:31:26;99920.86;;;25.75;66.86
12536;BME280;6334;48.696;2.114;2022-08-19T12:33:56;99921.80;;;25.38;67.37
12536;BME280;6334;48.696;2.114;2022-08-19T12:36:26;99919.69;;;24.99;66.74
12536;BME280;6334;48.696;2.114;2022-08-19T12:38:57;99917.75;;;25.05;69.36
12536;BME280;6334;48.696;2.114;2022-08-19T12:41:27;99916.85;;;24.64;70.92
12536;BME280;6334;48.696;2.114;2022-08-19T12:43:58;99921.58;;;24.83;69.39
12536;BME280;6334;48.696;2.114;2022-08-19T12:46:28;99922.26;;;24.92;68.94
12536;BME280;6334;48.696;2.114;2022-08-19T12:48:59;99923.01;;;24.73;70.95
12536;BME280;6334;48.696;2.114;2022-08-19T12:51:29;99924.03;;;24.51;72.02
12536;BME280;6334;48.696;2.114;2022-08-19T12:54:00;99913.89;;;24.94;70.49
12536;BME280;6334;48.696;2.114;2022-08-19T12:56:30;99920.91;;;25.16;69.42
12536;BME280;6334;48.696;2.114;2022-08-19T12:59:01;99922.84;;;24.95;69.53
12536;BME280;6334;48.696;2.114;2022-08-19T13:01:31;99921.66;;;24.75;69.99
12536;BME280;6334;48.696;2.114;2022-08-19T13:04:01;99923.02;;;24.92;70.46
12536;BME280;6334;48.696;2.114;2022-08-19T13:06:32;99920.39;;;24.69;68.53
12536;BME280;6334;48.696;2.114;2022-08-19T13:09:03;99916.42;;;24.60;69.01
12536;BME280;6334;48.696;2.114;2022-08-19T13:11:33;99916.44;;;24.63;67.53
12536;BME280;6334;48.696;2.114;2022-08-19T13:14:03;99912.05;;;24.66;68.68
12536;BME280;6334;48.696;2.114;2022-08-19T13:16:34;99920.80;;;24.21;71.68
12536;BME280;6334;48.696;2.114;2022-08-19T13:19:04;99910.18;;;24.28;71.94
12536;BME280;6334;48.696;2.114;2022-08-19T13:21:35;99915.63;;;24.33;72.42
12536;BME280;6334;48.696;2.114;2022-08-19T13:24:05;99914.61;;;24.33;71.92
12536;BME280;6334;48.696;2.114;2022-08-19T13:26:35;99912.31;;;24.39;70.15
12536;BME280;6334;48.696;2.114;2022-08-19T13:29:06;99916.25;;;23.83;70.49
12536;BME280;6334;48.696;2.114;2022-08-19T13:31:55;99861.98;;;23.90;69.02
12536;BME280;6334;48.696;2.114;2022-08-19T13:34:43;99876.80;;;23.96;69.21
12536;BME280;6334;48.696;2.114;2022-08-19T13:37:14;99913.75;;;24.11;67.87
12536;BME280;6334;48.696;2.114;2022-08-19T13:39:44;99911.58;;;24.33;67.85
12536;BME280;6334;48.696;2.114;2022-08-19T13:42:15;99917.17;;;23.87;70.40
12536;BME280;6334;48.696;2.114;2022-08-19T13:44:45;99918.08;;;24.01;70.22
12536;BME280;6334;48.696;2.114;2022-08-19T13:47:15;99911.01;;;24.09;69.32